sensor_id;sensor_type;location;lat;lon;timestamp;P1;durP1;ratioP1;P2;durP2;ratioP2
18899;SDS011;9582;52.018;6.306;2023-06-05T00:00:24;6.73;;;4.40;;
18899;SDS011;9582;52.018;6.306;2023-06-05T00:02:51;6.00;;;4.00;;
18899;SDS011;9582;52.018;6.306;2023-06-05T00:05:18;5.87;;;3.67;;
18899;SDS011;9582;52.018;6.306;2023-06-05T00:07:46;5.93;;;3.73;;
18899;SDS011;9582;52.018;6.306;2023-06-05T00:10:13;9.00;;;4.63;;
18899;SDS011;9582;52.018;6.306;2023-06-05T00:12:39;6.10;;;4.80;;
18899;SDS011;9582;52.018;6.306;2023-06-05T00:15:06;5.80;;;4.20;;
18899;SDS011;9582;52.018;6.306;2023-06-05T00:17:33;5.13;;;4.63;;
18899;SDS011;9582;52.018;6.306;2023-06-05T00:20:01;6.43;;;5.00;;
18899;SDS011;9582;52.018;6.306;2023-06-05T00:22:28;6.50;;;4.33;;
18899;SDS011;9582;52.018;6.306;2023-06-05T00:24:57;6.83;;;5.37;;
18899;SDS011;9582;52.018;6.306;2023-06-05T00:27:23;6.00;;;4.53;;
18899;SDS011;9582;52.018;6.306;2023-06-05T00:29:50;7.73;;;5.10;;
18899;SDS011;9582;52.018;6.306;2023-06-05T00:32:17;6.40;;;4.53;;
18899;SDS011;9582;52.018;6.306;2023-06-05T00:34:43;9.30;;;4.83;;
18899;SDS011;9582;52.018;6.306;2023-06-05T00:37:10;6.17;;;4.87;;
18899;SDS011;9582;52.018;6.306;2023-06-05T00:39:38;7.53;;;5.07;;
18899;SDS011;9582;52.018;6.306;2023-06-05T00:42:07;7.47;;;5.27;;
18899;SDS011;9582;52.018;6.306;2023-06-05T00:44:34;7.73;;;6.00;;
18899;SDS011;9582;52.018;6.306;2023-06-05T00:47:01;7.60;;;5.47;;
18899;SDS011;9582;52.018;6.306;2023-06-05T00:49:29;8.30;;;5.63;;
18899;SDS011;9582;52.018;6.306;2023-06-05T00:51:56;6.70;;;5.37;;
18899;SDS011;9582;52.018;6.306;2023-06-05T00:54:25;7.80;;;5.83;;
18899;SDS011;9582;52.018;6.306;2023-06-05T00:56:51;9.87;;;6.23;;
18899;SDS011;9582;52.018;6.306;2023-06-05T00:59:19;9.40;;;5.70;;
18899;SDS011;9582;52.018;6.306;2023-06-05T01:01:46;8.30;;;5.73;;
18899;SDS011;9582;52.018;6.306;2023-06-05T01:04:13;6.67;;;5.63;;
18899;SDS011;9582;52.018;6.306;2023-06-05T01:06:39;8.03;;;5.63;;
18899;SDS011;9582;52.018;6.306;2023-06-05T01:09:06;8.60;;;6.60;;
18899;SDS011;9582;52.018;6.306;2023-06-05T01:11:37;8.27;;;6.33;;
18899;SDS011;9582;52.018;6.306;2023-06-05T01:14:08;8.53;;;5.80;;
18899;SDS011;9582;52.018;6.306;2023-06-05T01:16:48;6.90;;;5.67;;
18899;SDS011;9582;52.018;6.306;2023-06-05T01:19:16;9.07;;;6.17;;
18899;SDS011;9582;52.018;6.306;2023-06-05T01:21:43;9.50;;;5.93;;
18899;SDS011;9582;52.018;6.306;2023-06-05T01:24:11;6.93;;;5.90;;
18899;SDS011;9582;52.018;6.306;2023-06-05T01:26:43;9.70;;;6.90;;
18899;SDS011;9582;52.018;6.306;2023-06-05T01:29:21;8.80;;;5.67;;
18899;SDS011;9582;52.018;6.306;2023-06-05T01:31:55;9.53;;;7.00;;
18899;SDS011;9582;52.018;6.306;2023-06-05T01:34:29;8.67;;;6.40;;
18899;SDS011;9582;52.018;6.306;2023-06-05T01:36:56;9.43;;;6.73;;
18899;SDS011;9582;52.018;6.306;2023-06-05T01:39:24;9.47;;;6.90;;
18899;SDS011;9582;52.018;6.306;2023-06-05T01:41:54;9.77;;;7.33;;
18899;SDS011;9582;52.018;6.306;2023-06-05T01:44:23;9.27;;;6.23;;
18899;SDS011;9582;52.018;6.306;2023-06-05T01:46:50;9.27;;;7.03;;
18899;SDS011;9582;52.018;6.306;2023-06-05T01:49:17;13.20;;;7.53;;
18899;SDS011;9582;52.018;6.306;2023-06-05T01:51:45;8.03;;;7.00;;
18899;SDS011;9582;52.018;6.306;2023-06-05T01:54:12;11.30;;;7.87;;
18899;SDS011;9582;52.018;6.306;2023-06-05T01:56:42;11.00;;;7.63;;
18899;SDS011;9582;52.018;6.306;2023-06-05T01:59:08;9.63;;;7.20;;
18899;SDS011;9582;52.018;6.306;2023-06-05T02:01:35;9.40;;;7.07;;
18899;SDS011;9582;52.018;6.306;2023-06-05T02:04:02;11.53;;;7.37;;
18899;SDS011;9582;52.018;6.306;2023-06-05T02:06:34;9.93;;;7.50;;
18899;SDS011;9582;52.018;6.306;2023-06-05T02:09:06;9.77;;;7.23;;
18899;SDS011;9582;52.018;6.306;2023-06-05T02:11:35;11.03;;;7.67;;
18899;SDS011;9582;52.018;6.306;2023-06-05T02:14:04;9.07;;;7.60;;
18899;SDS011;9582;52.018;6.306;2023-06-05T02:16:31;10.67;;;6.77;;
18899;SDS011;9582;52.018;6.306;2023-06-05T02:19:01;9.63;;;6.57;;
18899;SDS011;9582;52.018;6.306;2023-06-05T02:21:29;9.90;;;7.90;;
18899;SDS011;9582;52.018;6.306;2023-06-05T02:23:58;10.23;;;7.57;;
18899;SDS011;9582;52.018;6.306;2023-06-05T02:26:25;10.27;;;8.07;;
18899;SDS011;9582;52.018;6.306;2023-06-05T02:28:55;11.77;;;8.60;;
18899;SDS011;9582;52.018;6.306;2023-06-05T02:31:24;11.23;;;7.30;;
18899;SDS011;9582;52.018;6.306;2023-06-05T02:33:54;11.20;;;7.87;;
18899;SDS011;9582;52.018;6.306;2023-06-05T02:36:21;11.67;;;8.53;;
18899;SDS011;9582;52.018;6.306;2023-06-05T02:38:49;11.80;;;9.00;;
18899;SDS011;9582;52.018;6.306;2023-06-05T02:41:16;14.90;;;8.97;;
18899;SDS011;9582;52.018;6.306;2023-06-05T02:43:42;12.40;;;8.67;;
18899;SDS011;9582;52.018;6.306;2023-06-05T02:46:09;13.10;;;8.47;;
18899;SDS011;9582;52.018;6.306;2023-06-05T02:48:37;14.80;;;9.10;;
18899;SDS011;9582;52.018;6.306;2023-06-05T02:51:04;14.37;;;9.70;;
18899;SDS011;9582;52.018;6.306;2023-06-05T02:53:31;15.90;;;9.33;;
18899;SDS011;9582;52.018;6.306;2023-06-05T02:55:58;13.30;;;8.90;;
18899;SDS011;9582;52.018;6.306;2023-06-05T02:58:28;14.17;;;9.27;;
18899;SDS011;9582;52.018;6.306;2023-06-05T03:00:57;14.60;;;9.37;;
18899;SDS011;9582;52.018;6.306;2023-06-05T03:03:31;12.33;;;8.33;;
18899;SDS011;9582;52.018;6.306;2023-06-05T03:06:00;12.30;;;7.97;;
18899;SDS011;9582;52.018;6.306;2023-06-05T03:08:31;11.23;;;8.53;;
18899;SDS011;9582;52.018;6.306;2023-06-05T03:10:58;15.67;;;9.57;;
18899;SDS011;9582;52.018;6.306;2023-06-05T03:13:25;14.10;;;9.37;;
18899;SDS011;9582;52.018;6.306;2023-06-05T03:15:52;16.53;;;10.13;;
18899;SDS011;9582;52.018;6.306;2023-06-05T03:18:22;13.17;;;8.70;;
18899;SDS011;9582;52.018;6.306;2023-06-05T03:20:50;13.70;;;8.97;;
18899;SDS011;9582;52.018;6.306;2023-06-05T03:23:22;13.60;;;9.50;;
18899;SDS011;9582;52.018;6.306;2023-06-05T03:25:50;13.97;;;9.53;;
18899;SDS011;9582;52.018;6.306;2023-06-05T03:28:19;15.77;;;10.13;;
18899;SDS011;9582;52.018;6.306;2023-06-05T03:30:47;15.20;;;9.10;;
18899;SDS011;9582;52.018;6.306;2023-06-05T03:33:15;14.40;;;9.57;;
18899;SDS011;9582;52.018;6.306;2023-06-05T03:35:43;11.97;;;8.73;;
18899;SDS011;9582;52.018;6.306;2023-06-05T03:38:11;14.30;;;9.93;;
18899;SDS011;9582;52.018;6.306;2023-06-05T03:40:40;13.07;;;8.83;;
18899;SDS011;9582;52.018;6.306;2023-06-05T03:43:09;11.73;;;8.77;;
18899;SDS011;9582;52.018;6.306;2023-06-05T03:45:36;13.20;;;9.07;;
18899;SDS011;9582;52.018;6.306;2023-06-05T03:48:05;10.47;;;7.93;;
18899;SDS011;9582;52.018;6.306;2023-06-05T03:50:36;11.23;;;8.43;;
18899;SDS011;9582;52.018;6.306;2023-06-05T03:53:03;15.20;;;8.73;;
18899;SDS011;9582;52.018;6.306;2023-06-05T03:55:31;12.17;;;8.87;;
18899;SDS011;9582;52.018;6.306;2023-06-05T03:58:11;14.40;;;8.93;;
18899;SDS011;9582;52.018;6.306;2023-06-05T04:00:40;14.63;;;8.93;;
18899;SDS011;9582;52.018;6.306;2023-06-05T04:03:08;13.30;;;8.40;;
18899;SDS011;9582;52.018;6.306;2023-06-05T04:05:36;11.83;;;9.13;;
18899;SDS011;9582;52.018;6.306;2023-06-05T04:08:04;11.00;;;8.20;;
18899;SDS011;9582;52.018;6.306;2023-06-05T04:10:30;12.83;;;9.03;;
18899;SDS011;9582;52.018;6.306;2023-06-05T04:12:57;13.33;;;8.43;;
18899;SDS011;9582;52.018;6.306;2023-06-05T04:15:25;12.97;;;8.77;;
18899;SDS011;9582;52.018;6.306;2023-06-05T04:17:53;13.47;;;8.67;;
18899;SDS011;9582;52.018;6.306;2023-06-05T04:20:20;11.47;;;8.27;;
18899;SDS011;9582;52.018;6.306;2023-06-05T04:22:47;13.87;;;8.27;;
18899;SDS011;9582;52.018;6.306;2023-06-05T04:25:14;11.10;;;7.80;;
18899;SDS011;9582;52.018;6.306;2023-06-05T04:27:44;12.07;;;8.07;;
18899;SDS011;9582;52.018;6.306;2023-06-05T04:30:13;13.10;;;9.17;;
18899;SDS011;9582;52.018;6.306;2023-06-05T04:32:42;12.03;;;8.67;;
18899;SDS011;9582;52.018;6.306;2023-06-05T04:35:20;13.03;;;8.77;;
18899;SDS011;9582;52.018;6.306;2023-06-05T04:37:47;13.53;;;8.40;;
18899;SDS011;9582;52.018;6.306;2023-06-05T04:40:16;11.73;;;7.33;;
18899;SDS011;9582;52.018;6.306;2023-06-05T04:42:46;12.47;;;9.70;;
18899;SDS011;9582;52.018;6.306;2023-06-05T04:45:13;13.87;;;8.90;;
18899;SDS011;9582;52.018;6.306;2023-06-05T04:47:45;11.00;;;7.90;;
18899;SDS011;9582;52.018;6.306;2023-06-05T04:50:21;16.33;;;9.83;;
18899;SDS011;9582;52.018;6.306;2023-06-05T04:52:56;12.33;;;8.63;;
18899;SDS011;9582;52.018;6.306;2023-06-05T04:55:23;14.20;;;8.77;;
18899;SDS011;9582;52.018;6.306;2023-06-05T04:57:52;11.70;;;8.47;;
18899;SDS011;9582;52.018;6.306;2023-06-05T05:00:19;11.57;;;7.83;;
18899;SDS011;9582;52.018;6.306;2023-06-05T05:02:48;12.90;;;9.13;;
18899;SDS011;9582;52.018;6.306;2023-06-05T05:05:16;15.03;;;9.87;;
18899;SDS011;9582;52.018;6.306;2023-06-05T05:07:44;15.20;;;10.17;;
18899;SDS011;9582;52.018;6.306;2023-06-05T05:10:11;14.07;;;8.27;;
18899;SDS011;9582;52.018;6.306;2023-06-05T05:12:38;13.50;;;9.70;;
18899;SDS011;9582;52.018;6.306;2023-06-05T05:15:06;10.70;;;8.60;;
18899;SDS011;9582;52.018;6.306;2023-06-05T05:17:33;15.43;;;9.87;;
18899;SDS011;9582;52.018;6.306;2023-06-05T05:20:01;13.67;;;9.27;;
18899;SDS011;9582;52.018;6.306;2023-06-05T05:22:29;11.93;;;7.37;;
18899;SDS011;9582;52.018;6.306;2023-06-05T05:24:56;15.50;;;8.70;;
18899;SDS011;9582;52.018;6.306;2023-06-05T05:27:23;14.70;;;9.83;;
18899;SDS011;9582;52.018;6.306;2023-06-05T05:29:51;13.70;;;9.30;;
18899;SDS011;9582;52.018;6.306;2023-06-05T05:32:18;12.87;;;8.43;;
18899;SDS011;9582;52.018;6.306;2023-06-05T05:34:45;12.60;;;8.73;;
18899;SDS011;9582;52.018;6.306;2023-06-05T05:37:14;12.30;;;9.10;;
18899;SDS011;9582;52.018;6.306;2023-06-05T05:39:40;11.87;;;8.77;;
18899;SDS011;9582;52.018;6.306;2023-06-05T05:42:07;12.87;;;8.17;;
18899;SDS011;9582;52.018;6.306;2023-06-05T05:44:33;12.37;;;9.00;;
18899;SDS011;9582;52.018;6.306;2023-06-05T05:47:01;13.17;;;9.70;;
18899;SDS011;9582;52.018;6.306;2023-06-05T05:49:27;11.50;;;8.83;;
18899;SDS011;9582;52.018;6.306;2023-06-05T05:51:54;11.03;;;8.43;;
18899;SDS011;9582;52.018;6.306;2023-06-05T05:54:21;10.23;;;7.83;;
18899;SDS011;9582;52.018;6.306;2023-06-05T05:56:52;14.33;;;7.27;;
18899;SDS011;9582;52.018;6.306;2023-06-05T05:59:18;5.57;;;4.17;;
18899;SDS011;9582;52.018;6.306;2023-06-05T06:01:45;13.60;;;8.43;;
18899;SDS011;9582;52.018;6.306;2023-06-05T06:04:11;11.33;;;8.10;;
18899;SDS011;9582;52.018;6.306;2023-06-05T06:06:38;10.97;;;8.33;;
18899;SDS011;9582;52.018;6.306;2023-06-05T06:09:05;9.03;;;6.47;;
18899;SDS011;9582;52.018;6.306;2023-06-05T06:11:35;11.53;;;8.23;;
18899;SDS011;9582;52.018;6.306;2023-06-05T06:14:02;10.90;;;7.60;;
18899;SDS011;9582;52.018;6.306;2023-06-05T06:16:28;12.00;;;8.43;;
18899;SDS011;9582;52.018;6.306;2023-06-05T06:18:55;14.93;;;8.57;;
18899;SDS011;9582;52.018;6.306;2023-06-05T06:21:22;11.27;;;7.27;;
18899;SDS011;9582;52.018;6.306;2023-06-05T06:23:48;10.18;;;8.50;;
18899;SDS011;9582;52.018;6.306;2023-06-05T06:26:15;12.70;;;7.73;;
18899;SDS011;9582;52.018;6.306;2023-06-05T06:28:43;11.47;;;8.50;;
18899;SDS011;9582;52.018;6.306;2023-06-05T06:31:09;10.27;;;8.87;;
18899;SDS011;9582;52.018;6.306;2023-06-05T06:33:37;12.38;;;8.85;;
18899;SDS011;9582;52.018;6.306;2023-06-05T06:36:03;13.48;;;8.30;;
18899;SDS011;9582;52.018;6.306;2023-06-05T06:38:29;10.90;;;8.18;;
18899;SDS011;9582;52.018;6.306;2023-06-05T06:40:57;11.80;;;8.40;;
18899;SDS011;9582;52.018;6.306;2023-06-05T06:43:24;10.70;;;8.25;;
18899;SDS011;9582;52.018;6.306;2023-06-05T06:46:00;11.40;;;7.82;;
18899;SDS011;9582;52.018;6.306;2023-06-05T06:48:28;13.43;;;8.65;;
18899;SDS011;9582;52.018;6.306;2023-06-05T06:50:54;10.93;;;9.32;;
18899;SDS011;9582;52.018;6.306;2023-06-05T06:53:21;8.55;;;6.15;;
18899;SDS011;9582;52.018;6.306;2023-06-05T06:55:47;13.77;;;8.85;;
18899;SDS011;9582;52.018;6.306;2023-06-05T06:58:14;10.65;;;6.80;;
18899;SDS011;9582;52.018;6.306;2023-06-05T07:00:41;13.45;;;8.45;;
18899;SDS011;9582;52.018;6.306;2023-06-05T07:03:09;12.63;;;7.63;;
18899;SDS011;9582;52.018;6.306;2023-06-05T07:05:35;11.15;;;8.45;;
18899;SDS011;9582;52.018;6.306;2023-06-05T07:08:02;9.48;;;7.60;;
18899;SDS011;9582;52.018;6.306;2023-06-05T07:10:29;11.90;;;8.70;;
18899;SDS011;9582;52.018;6.306;2023-06-05T07:12:55;8.68;;;6.18;;
18899;SDS011;9582;52.018;6.306;2023-06-05T07:15:22;9.73;;;7.82;;
18899;SDS011;9582;52.018;6.306;2023-06-05T07:17:49;12.93;;;9.52;;
18899;SDS011;9582;52.018;6.306;2023-06-05T07:20:16;15.88;;;9.23;;
18899;SDS011;9582;52.018;6.306;2023-06-05T07:22:43;14.80;;;8.80;;
18899;SDS011;9582;52.018;6.306;2023-06-05T07:25:11;10.50;;;7.57;;
18899;SDS011;9582;52.018;6.306;2023-06-05T07:27:38;10.82;;;7.95;;
18899;SDS011;9582;52.018;6.306;2023-06-05T07:30:06;9.68;;;7.70;;
18899;SDS011;9582;52.018;6.306;2023-06-05T07:32:33;9.57;;;8.20;;
18899;SDS011;9582;52.018;6.306;2023-06-05T07:35:00;11.48;;;7.30;;
18899;SDS011;9582;52.018;6.306;2023-06-05T07:37:28;8.88;;;7.32;;
18899;SDS011;9582;52.018;6.306;2023-06-05T07:39:55;13.00;;;7.28;;
18899;SDS011;9582;52.018;6.306;2023-06-05T07:42:21;8.52;;;6.30;;
18899;SDS011;9582;52.018;6.306;2023-06-05T07:44:48;10.57;;;7.47;;
18899;SDS011;9582;52.018;6.306;2023-06-05T07:47:14;11.88;;;7.40;;
18899;SDS011;9582;52.018;6.306;2023-06-05T07:49:41;8.02;;;6.32;;
18899;SDS011;9582;52.018;6.306;2023-06-05T07:52:08;10.70;;;8.23;;
18899;SDS011;9582;52.018;6.306;2023-06-05T07:54:35;12.10;;;8.20;;
18899;SDS011;9582;52.018;6.306;2023-06-05T07:57:03;10.43;;;8.13;;
18899;SDS011;9582;52.018;6.306;2023-06-05T07:59:29;9.50;;;8.20;;
18899;SDS011;9582;52.018;6.306;2023-06-05T08:01:57;13.95;;;7.85;;
18899;SDS011;9582;52.018;6.306;2023-06-05T08:04:26;9.55;;;7.55;;
18899;SDS011;9582;52.018;6.306;2023-06-05T08:06:52;12.15;;;8.57;;
18899;SDS011;9582;52.018;6.306;2023-06-05T08:09:19;9.15;;;7.40;;
18899;SDS011;9582;52.018;6.306;2023-06-05T08:11:47;10.13;;;7.75;;
18899;SDS011;9582;52.018;6.306;2023-06-05T08:14:14;11.52;;;7.68;;
18899;SDS011;9582;52.018;6.306;2023-06-05T08:16:40;10.82;;;8.07;;
18899;SDS011;9582;52.018;6.306;2023-06-05T08:19:07;12.43;;;8.00;;
18899;SDS011;9582;52.018;6.306;2023-06-05T08:21:33;8.70;;;7.60;;
18899;SDS011;9582;52.018;6.306;2023-06-05T08:24:02;9.77;;;7.72;;
18899;SDS011;9582;52.018;6.306;2023-06-05T08:26:28;9.80;;;7.68;;
18899;SDS011;9582;52.018;6.306;2023-06-05T08:28:56;9.60;;;7.68;;
18899;SDS011;9582;52.018;6.306;2023-06-05T08:31:23;9.35;;;7.80;;
18899;SDS011;9582;52.018;6.306;2023-06-05T08:33:49;8.07;;;6.60;;
18899;SDS011;9582;52.018;6.306;2023-06-05T08:36:16;12.50;;;7.53;;
18899;SDS011;9582;52.018;6.306;2023-06-05T08:38:43;9.05;;;7.05;;
18899;SDS011;9582;52.018;6.306;2023-06-05T08:41:09;10.75;;;7.60;;
18899;SDS011;9582;52.018;6.306;2023-06-05T08:43:36;8.95;;;7.38;;
18899;SDS011;9582;52.018;6.306;2023-06-05T08:46:05;9.10;;;6.10;;
18899;SDS011;9582;52.018;6.306;2023-06-05T08:48:36;11.35;;;7.90;;
18899;SDS011;9582;52.018;6.306;2023-06-05T08:51:07;10.13;;;7.53;;
18899;SDS011;9582;52.018;6.306;2023-06-05T08:53:36;6.82;;;4.45;;
18899;SDS011;9582;52.018;6.306;2023-06-05T08:56:05;11.38;;;7.28;;
18899;SDS011;9582;52.018;6.306;2023-06-05T08:58:32;9.77;;;6.78;;
18899;SDS011;9582;52.018;6.306;2023-06-05T09:01:00;8.95;;;6.32;;
18899;SDS011;9582;52.018;6.306;2023-06-05T09:03:28;10.35;;;7.60;;
18899;SDS011;9582;52.018;6.306;2023-06-05T09:05:54;10.52;;;6.78;;
18899;SDS011;9582;52.018;6.306;2023-06-05T09:08:27;10.80;;;7.40;;
18899;SDS011;9582;52.018;6.306;2023-06-05T09:10:59;9.95;;;7.50;;
18899;SDS011;9582;52.018;6.306;2023-06-05T09:13:47;7.95;;;7.07;;
18899;SDS011;9582;52.018;6.306;2023-06-05T09:16:14;9.85;;;7.22;;
18899;SDS011;9582;52.018;6.306;2023-06-05T09:18:52;12.10;;;7.50;;
18899;SDS011;9582;52.018;6.306;2023-06-05T09:21:19;8.02;;;7.22;;
18899;SDS011;9582;52.018;6.306;2023-06-05T09:23:46;8.27;;;5.28;;
18899;SDS011;9582;52.018;6.306;2023-06-05T09:26:12;8.20;;;6.35;;
18899;SDS011;9582;52.018;6.306;2023-06-05T09:28:48;7.95;;;7.15;;
18899;SDS011;9582;52.018;6.306;2023-06-05T09:31:19;8.88;;;6.95;;
18899;SDS011;9582;52.018;6.306;2023-06-05T09:33:54;10.52;;;7.15;;
18899;SDS011;9582;52.018;6.306;2023-06-05T09:36:24;8.32;;;6.53;;
18899;SDS011;9582;52.018;6.306;2023-06-05T09:38:52;9.00;;;7.55;;
18899;SDS011;9582;52.018;6.306;2023-06-05T09:41:18;10.90;;;7.35;;
18899;SDS011;9582;52.018;6.306;2023-06-05T09:43:45;10.32;;;7.07;;
18899;SDS011;9582;52.018;6.306;2023-06-05T09:46:14;8.98;;;6.93;;
18899;SDS011;9582;52.018;6.306;2023-06-05T09:48:42;10.65;;;6.38;;
18899;SDS011;9582;52.018;6.306;2023-06-05T09:51:17;9.32;;;7.05;;
18899;SDS011;9582;52.018;6.306;2023-06-05T09:53:45;8.25;;;6.68;;
18899;SDS011;9582;52.018;6.306;2023-06-05T09:56:13;8.82;;;6.43;;
18899;SDS011;9582;52.018;6.306;2023-06-05T09:58:44;9.07;;;7.32;;
18899;SDS011;9582;52.018;6.306;2023-06-05T10:01:12;9.23;;;6.68;;
18899;SDS011;9582;52.018;6.306;2023-06-05T10:03:44;8.80;;;6.82;;
18899;SDS011;9582;52.018;6.306;2023-06-05T10:06:13;8.07;;;6.18;;
18899;SDS011;9582;52.018;6.306;2023-06-05T10:08:48;8.77;;;6.63;;
18899;SDS011;9582;52.018;6.306;2023-06-05T10:11:15;7.65;;;5.88;;
18899;SDS011;9582;52.018;6.306;2023-06-05T10:13:43;8.13;;;6.45;;
18899;SDS011;9582;52.018;6.306;2023-06-05T10:16:11;9.00;;;6.85;;
18899;SDS011;9582;52.018;6.306;2023-06-05T10:18:37;8.15;;;6.32;;
18899;SDS011;9582;52.018;6.306;2023-06-05T10:21:04;8.95;;;6.72;;
18899;SDS011;9582;52.018;6.306;2023-06-05T10:23:31;10.13;;;6.05;;
18899;SDS011;9582;52.018;6.306;2023-06-05T10:26:01;8.23;;;5.75;;
18899;SDS011;9582;52.018;6.306;2023-06-05T10:28:39;7.22;;;5.80;;
18899;SDS011;9582;52.018;6.306;2023-06-05T10:31:25;9.02;;;5.72;;
18899;SDS011;9582;52.018;6.306;2023-06-05T10:34:01;10.15;;;6.32;;
18899;SDS011;9582;52.018;6.306;2023-06-05T10:36:39;8.45;;;6.80;;
18899;SDS011;9582;52.018;6.306;2023-06-05T10:39:19;7.75;;;6.07;;
18899;SDS011;9582;52.018;6.306;2023-06-05T10:41:50;7.88;;;6.22;;
18899;SDS011;9582;52.018;6.306;2023-06-05T10:44:17;9.07;;;6.85;;
18899;SDS011;9582;52.018;6.306;2023-06-05T10:46:44;8.40;;;5.80;;
18899;SDS011;9582;52.018;6.306;2023-06-05T10:49:11;8.68;;;6.38;;
18899;SDS011;9582;52.018;6.306;2023-06-05T10:51:41;6.78;;;4.80;;
18899;SDS011;9582;52.018;6.306;2023-06-05T10:54:09;7.65;;;5.22;;
18899;SDS011;9582;52.018;6.306;2023-06-05T10:56:57;7.88;;;6.35;;
18899;SDS011;9582;52.018;6.306;2023-06-05T10:59:27;8.77;;;5.18;;
18899;SDS011;9582;52.018;6.306;2023-06-05T11:05:06;6.35;;;4.93;;
18899;SDS011;9582;52.018;6.306;2023-06-05T11:07:35;7.93;;;6.07;;
18899;SDS011;9582;52.018;6.306;2023-06-05T11:10:09;7.65;;;5.78;;
18899;SDS011;9582;52.018;6.306;2023-06-05T11:12:55;10.15;;;6.07;;
18899;SDS011;9582;52.018;6.306;2023-06-05T11:18:26;6.72;;;5.70;;
18899;SDS011;9582;52.018;6.306;2023-06-05T11:20:59;7.28;;;5.50;;
18899;SDS011;9582;52.018;6.306;2023-06-05T11:23:27;8.27;;;6.35;;
18899;SDS011;9582;52.018;6.306;2023-06-05T11:25:58;6.40;;;5.40;;
18899;SDS011;9582;52.018;6.306;2023-06-05T11:29:03;8.85;;;4.95;;
18899;SDS011;9582;52.018;6.306;2023-06-05T11:31:37;8.43;;;5.00;;
18899;SDS011;9582;52.018;6.306;2023-06-05T11:34:09;7.47;;;5.63;;
18899;SDS011;9582;52.018;6.306;2023-06-05T11:36:37;8.60;;;5.40;;
18899;SDS011;9582;52.018;6.306;2023-06-05T11:39:04;7.93;;;5.05;;
18899;SDS011;9582;52.018;6.306;2023-06-05T11:41:30;5.38;;;4.55;;
18899;SDS011;9582;52.018;6.306;2023-06-05T11:43:57;6.65;;;5.22;;
18899;SDS011;9582;52.018;6.306;2023-06-05T11:46:36;7.85;;;5.70;;
18899;SDS011;9582;52.018;6.306;2023-06-05T11:49:03;8.48;;;5.63;;
18899;SDS011;9582;52.018;6.306;2023-06-05T11:51:31;6.22;;;5.47;;
18899;SDS011;9582;52.018;6.306;2023-06-05T11:53:59;8.45;;;6.00;;
18899;SDS011;9582;52.018;6.306;2023-06-05T11:56:26;7.00;;;6.05;;
18899;SDS011;9582;52.018;6.306;2023-06-05T11:58:54;7.00;;;5.75;;
18899;SDS011;9582;52.018;6.306;2023-06-05T12:01:21;9.23;;;5.57;;
18899;SDS011;9582;52.018;6.306;2023-06-05T12:03:49;8.20;;;5.97;;
18899;SDS011;9582;52.018;6.306;2023-06-05T12:06:28;7.25;;;5.20;;
18899;SDS011;9582;52.018;6.306;2023-06-05T12:08:56;6.63;;;5.05;;
18899;SDS011;9582;52.018;6.306;2023-06-05T12:11:32;7.72;;;5.22;;
18899;SDS011;9582;52.018;6.306;2023-06-05T12:13:59;6.60;;;5.47;;
18899;SDS011;9582;52.018;6.306;2023-06-05T12:16:30;7.25;;;5.63;;
18899;SDS011;9582;52.018;6.306;2023-06-05T12:19:00;7.45;;;6.40;;
18899;SDS011;9582;52.018;6.306;2023-06-05T12:21:28;6.57;;;5.60;;
18899;SDS011;9582;52.018;6.306;2023-06-05T12:24:01;7.13;;;5.75;;
18899;SDS011;9582;52.018;6.306;2023-06-05T12:26:28;6.85;;;5.50;;
18899;SDS011;9582;52.018;6.306;2023-06-05T12:29:01;9.20;;;5.35;;
18899;SDS011;9582;52.018;6.306;2023-06-05T12:31:33;6.95;;;6.10;;
18899;SDS011;9582;52.018;6.306;2023-06-05T12:34:02;8.90;;;5.35;;
18899;SDS011;9582;52.018;6.306;2023-06-05T12:36:30;7.28;;;5.60;;
18899;SDS011;9582;52.018;6.306;2023-06-05T12:39:01;7.18;;;4.85;;
18899;SDS011;9582;52.018;6.306;2023-06-05T12:41:32;6.35;;;4.05;;
18899;SDS011;9582;52.018;6.306;2023-06-05T12:43:59;7.82;;;5.35;;
18899;SDS011;9582;52.018;6.306;2023-06-05T12:46:27;5.78;;;4.65;;
18899;SDS011;9582;52.018;6.306;2023-06-05T12:48:53;6.10;;;4.32;;
18899;SDS011;9582;52.018;6.306;2023-06-05T12:51:21;6.40;;;4.53;;
18899;SDS011;9582;52.018;6.306;2023-06-05T12:53:48;5.18;;;4.03;;
18899;SDS011;9582;52.018;6.306;2023-06-05T12:56:14;7.25;;;4.30;;
18899;SDS011;9582;52.018;6.306;2023-06-05T12:58:41;6.93;;;4.60;;
18899;SDS011;9582;52.018;6.306;2023-06-05T13:01:08;5.38;;;4.32;;
18899;SDS011;9582;52.018;6.306;2023-06-05T13:03:34;7.45;;;4.07;;
18899;SDS011;9582;52.018;6.306;2023-06-05T13:06:01;5.13;;;4.60;;
18899;SDS011;9582;52.018;6.306;2023-06-05T13:08:30;5.85;;;3.90;;
18899;SDS011;9582;52.018;6.306;2023-06-05T13:10:56;5.30;;;4.18;;
18899;SDS011;9582;52.018;6.306;2023-06-05T13:13:23;6.88;;;4.20;;
18899;SDS011;9582;52.018;6.306;2023-06-05T13:15:49;7.07;;;4.45;;
18899;SDS011;9582;52.018;6.306;2023-06-05T13:18:16;5.10;;;3.90;;
18899;SDS011;9582;52.018;6.306;2023-06-05T13:20:42;5.93;;;3.90;;
18899;SDS011;9582;52.018;6.306;2023-06-05T13:23:09;4.78;;;3.40;;
18899;SDS011;9582;52.018;6.306;2023-06-05T13:25:37;6.65;;;4.00;;
18899;SDS011;9582;52.018;6.306;2023-06-05T13:28:05;5.63;;;3.75;;
18899;SDS011;9582;52.018;6.306;2023-06-05T13:30:31;6.18;;;4.00;;
18899;SDS011;9582;52.018;6.306;2023-06-05T13:32:59;3.63;;;3.20;;
18899;SDS011;9582;52.018;6.306;2023-06-05T13:35:26;4.20;;;3.30;;
18899;SDS011;9582;52.018;6.306;2023-06-05T13:37:53;7.18;;;3.35;;
18899;SDS011;9582;52.018;6.306;2023-06-05T13:40:19;5.00;;;2.70;;
18899;SDS011;9582;52.018;6.306;2023-06-05T13:42:47;4.28;;;3.00;;
18899;SDS011;9582;52.018;6.306;2023-06-05T13:45:16;5.10;;;3.50;;
18899;SDS011;9582;52.018;6.306;2023-06-05T13:47:42;4.85;;;3.67;;
18899;SDS011;9582;52.018;6.306;2023-06-05T13:50:09;5.90;;;3.80;;
18899;SDS011;9582;52.018;6.306;2023-06-05T13:52:36;6.90;;;3.83;;
18899;SDS011;9582;52.018;6.306;2023-06-05T13:55:03;3.83;;;3.10;;
18899;SDS011;9582;52.018;6.306;2023-06-05T13:57:30;5.28;;;3.20;;
18899;SDS011;9582;52.018;6.306;2023-06-05T13:59:58;5.47;;;3.42;;
18899;SDS011;9582;52.018;6.306;2023-06-05T14:02:24;5.57;;;3.80;;
18899;SDS011;9582;52.018;6.306;2023-06-05T14:04:51;5.00;;;3.30;;
18899;SDS011;9582;52.018;6.306;2023-06-05T14:07:17;5.50;;;3.00;;
18899;SDS011;9582;52.018;6.306;2023-06-05T14:09:44;3.63;;;3.28;;
18899;SDS011;9582;52.018;6.306;2023-06-05T14:12:10;2.83;;;2.53;;
18899;SDS011;9582;52.018;6.306;2023-06-05T14:14:36;3.28;;;2.80;;
18899;SDS011;9582;52.018;6.306;2023-06-05T14:17:05;3.83;;;2.83;;
18899;SDS011;9582;52.018;6.306;2023-06-05T14:19:32;3.67;;;2.75;;
18899;SDS011;9582;52.018;6.306;2023-06-05T14:21:58;6.35;;;3.50;;
18899;SDS011;9582;52.018;6.306;2023-06-05T14:24:25;3.33;;;2.72;;
18899;SDS011;9582;52.018;6.306;2023-06-05T14:26:52;5.28;;;3.10;;
18899;SDS011;9582;52.018;6.306;2023-06-05T14:29:19;4.63;;;3.38;;
18899;SDS011;9582;52.018;6.306;2023-06-05T14:31:45;5.75;;;3.30;;
18899;SDS011;9582;52.018;6.306;2023-06-05T14:34:13;3.45;;;3.10;;
18899;SDS011;9582;52.018;6.306;2023-06-05T14:36:40;3.90;;;3.08;;
18899;SDS011;9582;52.018;6.306;2023-06-05T14:39:07;3.97;;;2.85;;
18899;SDS011;9582;52.018;6.306;2023-06-05T14:41:34;2.60;;;2.40;;
18899;SDS011;9582;52.018;6.306;2023-06-05T14:44:00;3.50;;;2.72;;
18899;SDS011;9582;52.018;6.306;2023-06-05T14:46:27;3.17;;;2.40;;
18899;SDS011;9582;52.018;6.306;2023-06-05T14:48:53;2.55;;;2.30;;
18899;SDS011;9582;52.018;6.306;2023-06-05T14:51:21;3.00;;;2.60;;
18899;SDS011;9582;52.018;6.306;2023-06-05T14:53:47;2.55;;;2.30;;
18899;SDS011;9582;52.018;6.306;2023-06-05T14:56:14;3.58;;;2.70;;
18899;SDS011;9582;52.018;6.306;2023-06-05T14:58:40;3.33;;;2.70;;
18899;SDS011;9582;52.018;6.306;2023-06-05T15:01:07;8.90;;;3.55;;
18899;SDS011;9582;52.018;6.306;2023-06-05T15:03:33;3.10;;;2.80;;
18899;SDS011;9582;52.018;6.306;2023-06-05T15:06:00;4.80;;;2.47;;
18899;SDS011;9582;52.018;6.306;2023-06-05T15:08:28;2.92;;;2.33;;